createdAt,value
2023-04-16T07:36:08.472Z,33.55
2023-04-16T07:39:13.632Z,36.95
2023-04-16T07:42:16.311Z,36.78
2023-04-16T07:45:19.322Z,34.78
2023-04-16T07:48:22.599Z,34.88
2023-04-16T07:51:26.509Z,39.47
2023-04-16T07:54:29.281Z,35.75
2023-04-16T07:57:31.768Z,33.67
2023-04-16T08:00:34.476Z,33.63
2023-04-16T08:03:37.132Z,27.42
2023-04-16T08:06:41.281Z,30.83
2023-04-16T08:09:52.227Z,27.85
2023-04-16T08:12:54.741Z,28.97
2023-04-16T08:15:57.170Z,24.80
2023-04-16T08:19:01.034Z,22.85
2023-04-16T08:22:04.925Z,23.40
2023-04-16T08:25:08.567Z,21.95
2023-04-16T08:28:11.031Z,24.77
2023-04-16T08:31:13.511Z,23.35
2023-04-16T08:34:16.014Z,22.15
2023-04-16T08:37:19.798Z,21.02
2023-04-16T08:40:23.061Z,24.63
2023-04-16T08:43:26.652Z,20.15
2023-04-16T08:46:30.844Z,21.15
2023-04-16T08:49:38.986Z,20.05
2023-04-16T08:52:47.383Z,23.08
2023-04-16T08:55:52.272Z,19.05
2023-04-16T08:58:56.270Z,23.25
2023-04-16T09:01:59.996Z,19.33
2023-04-16T09:05:06.513Z,22.85
2023-04-16T09:09:24.471Z,18.63
2023-04-16T09:12:27.393Z,18.17
2023-04-16T09:15:30.229Z,14.63
2023-04-16T09:18:32.837Z,16.25
2023-04-16T09:21:35.744Z,17.05
2023-04-16T09:24:39.574Z,14.40
2023-04-16T09:27:42.126Z,17.92
2023-04-16T09:30:45.569Z,16.00
2023-04-16T09:34:02.729Z,15.18
2023-04-16T09:37:20.253Z,16.92
2023-04-16T09:40:27.390Z,15.63
2023-04-16T09:43:29.911Z,15.82
2023-04-16T09:46:35.161Z,15.57
2023-04-16T09:49:42.992Z,14.43
2023-04-16T09:52:50.768Z,15.07
2023-04-16T09:55:57.969Z,14.57
2023-04-16T09:59:01.113Z,11.63
2023-04-16T10:02:14.375Z,13.18
2023-04-16T10:05:20.912Z,11.77
2023-04-16T10:08:24.943Z,24.05
2023-04-16T10:11:29.286Z,17.73
2023-04-16T10:14:31.900Z,15.07
2023-04-16T10:17:34.795Z,12.63
2023-04-16T11:08:54.136Z,13.82
2023-04-16T11:11:58.200Z,14.82
2023-04-16T11:15:02.237Z,19.02
2023-04-16T11:18:06.951Z,13.73
2023-04-16T11:21:11.244Z,13.50
2023-04-16T11:24:19.140Z,11.63
2023-04-16T11:27:21.625Z,12.38
2023-04-16T11:30:31.051Z,13.23
2023-04-16T11:33:33.575Z,10.65
2023-04-16T11:36:44.164Z,9.65
2023-04-16T11:39:54.267Z,9.88
2023-04-16T11:42:58.058Z,11.95
2023-04-16T11:46:12.922Z,9.93
2023-04-16T11:49:27.572Z,10.77
2023-04-16T11:52:31.495Z,11.13
2023-04-16T11:55:44.195Z,10.20
2023-04-16T11:58:46.709Z,11.77
2023-04-16T12:01:50.993Z,7.00
2023-04-16T12:05:03.284Z,10.82
2023-04-16T12:08:11.799Z,9.75
2023-04-16T12:11:28.377Z,9.05
2023-04-16T12:14:53.263Z,9.07
2023-04-16T12:18:08.003Z,10.55
2023-04-16T12:21:10.934Z,11.55
2023-04-16T12:24:14.830Z,8.68
2023-04-16T12:27:18.614Z,9.23
2023-04-16T12:30:22.961Z,8.75
2023-04-16T12:33:26.111Z,11.52
2023-04-16T12:36:28.699Z,11.23
2023-04-16T12:39:31.155Z,9.60
2023-04-16T12:42:36.610Z,10.07
2023-04-16T12:45:39.610Z,10.75
2023-04-16T12:48:42.577Z,10.90
2023-04-16T12:51:45.144Z,9.32
